sensor_id;sensor_type;location;lat;lon;timestamp;P1;durP1;ratioP1;P2;durP2;ratioP2
2854;SDS011;1435;49.472;10.940;2023-07-31T00:00:30;5.13;;;1.90;;
2854;SDS011;1435;49.472;10.940;2023-07-31T00:05:33;3.93;;;2.20;;
2854;SDS011;1435;49.472;10.940;2023-07-31T00:10:34;4.33;;;2.00;;
2854;SDS011;1435;49.472;10.940;2023-07-31T00:15:36;5.60;;;2.07;;
2854;SDS011;1435;49.472;10.940;2023-07-31T00:20:39;3.43;;;1.93;;
2854;SDS011;1435;49.472;10.940;2023-07-31T00:25:41;5.70;;;2.07;;
2854;SDS011;1435;49.472;10.940;2023-07-31T00:30:43;3.63;;;2.20;;
2854;SDS011;1435;49.472;10.940;2023-07-31T00:35:46;3.73;;;2.10;;
2854;SDS011;1435;49.472;10.940;2023-07-31T00:40:47;5.30;;;1.80;;
2854;SDS011;1435;49.472;10.940;2023-07-31T00:45:49;3.60;;;1.73;;
2854;SDS011;1435;49.472;10.940;2023-07-31T00:50:52;2.73;;;1.70;;
2854;SDS011;1435;49.472;10.940;2023-07-31T00:55:54;3.03;;;2.00;;
2854;SDS011;1435;49.472;10.940;2023-07-31T01:00:56;2.43;;;1.50;;
2854;SDS011;1435;49.472;10.940;2023-07-31T01:06:02;2.73;;;1.87;;
2854;SDS011;1435;49.472;10.940;2023-07-31T01:11:13;2.00;;;1.60;;
2854;SDS011;1435;49.472;10.940;2023-07-31T01:16:17;5.30;;;1.90;;
2854;SDS011;1435;49.472;10.940;2023-07-31T01:21:23;3.07;;;1.80;;
2854;SDS011;1435;49.472;10.940;2023-07-31T01:26:35;3.10;;;1.47;;
2854;SDS011;1435;49.472;10.940;2023-07-31T01:31:39;2.03;;;1.90;;
2854;SDS011;1435;49.472;10.940;2023-07-31T01:36:43;6.00;;;2.10;;
2854;SDS011;1435;49.472;10.940;2023-07-31T01:41:46;2.83;;;1.77;;
2854;SDS011;1435;49.472;10.940;2023-07-31T01:46:47;6.73;;;2.53;;
2854;SDS011;1435;49.472;10.940;2023-07-31T01:51:49;1.80;;;1.70;;
2854;SDS011;1435;49.472;10.940;2023-07-31T01:56:52;2.17;;;1.80;;
2854;SDS011;1435;49.472;10.940;2023-07-31T02:01:54;6.03;;;2.17;;
2854;SDS011;1435;49.472;10.940;2023-07-31T02:06:55;3.40;;;1.87;;
2854;SDS011;1435;49.472;10.940;2023-07-31T02:11:58;2.33;;;1.87;;
2854;SDS011;1435;49.472;10.940;2023-07-31T02:17:00;3.70;;;2.00;;
2854;SDS011;1435;49.472;10.940;2023-07-31T02:22:02;4.23;;;2.40;;
2854;SDS011;1435;49.472;10.940;2023-07-31T02:27:06;5.80;;;1.90;;
2854;SDS011;1435;49.472;10.940;2023-07-31T02:32:07;7.40;;;2.00;;
2854;SDS011;1435;49.472;10.940;2023-07-31T02:37:09;3.10;;;1.77;;
2854;SDS011;1435;49.472;10.940;2023-07-31T02:42:12;3.47;;;1.70;;
2854;SDS011;1435;49.472;10.940;2023-07-31T02:47:14;3.20;;;2.00;;
2854;SDS011;1435;49.472;10.940;2023-07-31T02:52:15;8.30;;;2.50;;
2854;SDS011;1435;49.472;10.940;2023-07-31T02:57:18;3.30;;;1.50;;
2854;SDS011;1435;49.472;10.940;2023-07-31T03:02:20;3.00;;;1.60;;
2854;SDS011;1435;49.472;10.940;2023-07-31T03:07:22;2.57;;;1.83;;
2854;SDS011;1435;49.472;10.940;2023-07-31T03:12:25;3.73;;;1.90;;
2854;SDS011;1435;49.472;10.940;2023-07-31T03:17:26;2.30;;;2.10;;
2854;SDS011;1435;49.472;10.940;2023-07-31T03:22:28;3.90;;;1.80;;
2854;SDS011;1435;49.472;10.940;2023-07-31T03:27:31;4.73;;;1.93;;
2854;SDS011;1435;49.472;10.940;2023-07-31T03:32:33;3.73;;;1.70;;
2854;SDS011;1435;49.472;10.940;2023-07-31T03:37:34;8.07;;;2.33;;
2854;SDS011;1435;49.472;10.940;2023-07-31T03:42:37;2.00;;;1.80;;
2854;SDS011;1435;49.472;10.940;2023-07-31T03:47:39;5.23;;;2.47;;
2854;SDS011;1435;49.472;10.940;2023-07-31T03:52:41;2.10;;;1.90;;
2854;SDS011;1435;49.472;10.940;2023-07-31T03:57:44;3.40;;;2.03;;
2854;SDS011;1435;49.472;10.940;2023-07-31T04:02:45;4.50;;;1.93;;
2854;SDS011;1435;49.472;10.940;2023-07-31T04:07:47;2.27;;;1.97;;
2854;SDS011;1435;49.472;10.940;2023-07-31T04:12:50;2.40;;;2.20;;
2854;SDS011;1435;49.472;10.940;2023-07-31T04:17:52;2.47;;;1.50;;
2854;SDS011;1435;49.472;10.940;2023-07-31T04:22:53;2.40;;;1.93;;
2854;SDS011;1435;49.472;10.940;2023-07-31T04:27:56;2.13;;;1.93;;
2854;SDS011;1435;49.472;10.940;2023-07-31T04:32:58;2.20;;;1.73;;
2854;SDS011;1435;49.472;10.940;2023-07-31T04:38:00;3.10;;;1.90;;
2854;SDS011;1435;49.472;10.940;2023-07-31T04:43:03;2.27;;;1.90;;
2854;SDS011;1435;49.472;10.940;2023-07-31T04:48:05;5.20;;;2.73;;
2854;SDS011;1435;49.472;10.940;2023-07-31T04:53:06;2.13;;;1.77;;
2854;SDS011;1435;49.472;10.940;2023-07-31T04:58:09;2.00;;;1.80;;
2854;SDS011;1435;49.472;10.940;2023-07-31T05:03:11;2.40;;;1.83;;
2854;SDS011;1435;49.472;10.940;2023-07-31T05:08:13;4.07;;;1.80;;
2854;SDS011;1435;49.472;10.940;2023-07-31T05:13:16;1.47;;;1.37;;
2854;SDS011;1435;49.472;10.940;2023-07-31T05:18:17;3.17;;;2.30;;
2854;SDS011;1435;49.472;10.940;2023-07-31T05:23:19;3.57;;;1.83;;
2854;SDS011;1435;49.472;10.940;2023-07-31T05:28:22;2.77;;;2.47;;
2854;SDS011;1435;49.472;10.940;2023-07-31T05:33:24;3.23;;;2.00;;
2854;SDS011;1435;49.472;10.940;2023-07-31T05:38:25;6.13;;;2.40;;
2854;SDS011;1435;49.472;10.940;2023-07-31T05:43:28;4.47;;;1.70;;
2854;SDS011;1435;49.472;10.940;2023-07-31T05:48:30;3.70;;;2.13;;
2854;SDS011;1435;49.472;10.940;2023-07-31T05:53:32;8.23;;;2.60;;
2854;SDS011;1435;49.472;10.940;2023-07-31T05:58:35;3.90;;;2.10;;
2854;SDS011;1435;49.472;10.940;2023-07-31T06:03:37;3.07;;;2.07;;
2854;SDS011;1435;49.472;10.940;2023-07-31T06:08:38;6.53;;;1.90;;
2854;SDS011;1435;49.472;10.940;2023-07-31T06:13:42;3.23;;;2.07;;
2854;SDS011;1435;49.472;10.940;2023-07-31T06:18:44;5.10;;;2.57;;
2854;SDS011;1435;49.472;10.940;2023-07-31T06:23:46;3.07;;;1.73;;
2854;SDS011;1435;49.472;10.940;2023-07-31T06:28:49;2.97;;;2.00;;
2854;SDS011;1435;49.472;10.940;2023-07-31T06:33:51;2.97;;;1.63;;
2854;SDS011;1435;49.472;10.940;2023-07-31T06:38:53;3.67;;;2.20;;
2854;SDS011;1435;49.472;10.940;2023-07-31T06:43:56;2.83;;;2.13;;
2854;SDS011;1435;49.472;10.940;2023-07-31T06:48:58;5.40;;;1.90;;
2854;SDS011;1435;49.472;10.940;2023-07-31T06:53:59;3.20;;;2.67;;
2854;SDS011;1435;49.472;10.940;2023-07-31T06:59:03;3.53;;;1.80;;
2854;SDS011;1435;49.472;10.940;2023-07-31T07:04:04;2.80;;;2.00;;
2854;SDS011;1435;49.472;10.940;2023-07-31T07:09:06;6.87;;;2.17;;
2854;SDS011;1435;49.472;10.940;2023-07-31T07:14:09;4.40;;;2.50;;
2854;SDS011;1435;49.472;10.940;2023-07-31T07:19:11;3.93;;;2.67;;
2854;SDS011;1435;49.472;10.940;2023-07-31T07:24:12;3.70;;;2.60;;
2854;SDS011;1435;49.472;10.940;2023-07-31T07:29:15;2.83;;;2.10;;
2854;SDS011;1435;49.472;10.940;2023-07-31T07:34:17;2.63;;;2.13;;
2854;SDS011;1435;49.472;10.940;2023-07-31T07:39:19;4.10;;;2.30;;
2854;SDS011;1435;49.472;10.940;2023-07-31T07:44:22;2.50;;;2.10;;
2854;SDS011;1435;49.472;10.940;2023-07-31T07:49:24;3.70;;;2.40;;
2854;SDS011;1435;49.472;10.940;2023-07-31T07:54:25;3.93;;;1.80;;
2854;SDS011;1435;49.472;10.940;2023-07-31T07:59:28;3.30;;;2.50;;
2854;SDS011;1435;49.472;10.940;2023-07-31T08:04:32;4.60;;;3.00;;
2854;SDS011;1435;49.472;10.940;2023-07-31T08:09:34;5.60;;;2.37;;
2854;SDS011;1435;49.472;10.940;2023-07-31T08:14:37;3.07;;;2.70;;
2854;SDS011;1435;49.472;10.940;2023-07-31T08:19:39;3.20;;;2.23;;
2854;SDS011;1435;49.472;10.940;2023-07-31T08:24:40;4.87;;;2.13;;
2854;SDS011;1435;49.472;10.940;2023-07-31T08:29:43;6.53;;;2.57;;
2854;SDS011;1435;49.472;10.940;2023-07-31T08:40:49;3.00;;;2.33;;
2854;SDS011;1435;49.472;10.940;2023-07-31T08:45:52;6.43;;;2.70;;
2854;SDS011;1435;49.472;10.940;2023-07-31T08:50:54;5.03;;;2.43;;
2854;SDS011;1435;49.472;10.940;2023-07-31T08:55:56;5.30;;;2.17;;
2854;SDS011;1435;49.472;10.940;2023-07-31T09:01:03;3.60;;;2.50;;
2854;SDS011;1435;49.472;10.940;2023-07-31T09:06:05;2.70;;;2.50;;
2854;SDS011;1435;49.472;10.940;2023-07-31T09:11:08;3.27;;;2.37;;
2854;SDS011;1435;49.472;10.940;2023-07-31T09:16:11;2.70;;;2.40;;
2854;SDS011;1435;49.472;10.940;2023-07-31T09:21:13;4.10;;;2.77;;
2854;SDS011;1435;49.472;10.940;2023-07-31T09:26:28;3.40;;;2.50;;
2854;SDS011;1435;49.472;10.940;2023-07-31T09:31:39;3.70;;;2.53;;
2854;SDS011;1435;49.472;10.940;2023-07-31T09:36:42;3.63;;;2.70;;
2854;SDS011;1435;49.472;10.940;2023-07-31T09:41:45;4.53;;;2.80;;
2854;SDS011;1435;49.472;10.940;2023-07-31T09:46:49;4.30;;;2.40;;
2854;SDS011;1435;49.472;10.940;2023-07-31T09:51:51;3.63;;;2.53;;
2854;SDS011;1435;49.472;10.940;2023-07-31T09:56:53;2.90;;;2.47;;
2854;SDS011;1435;49.472;10.940;2023-07-31T10:01:58;4.97;;;2.90;;
2854;SDS011;1435;49.472;10.940;2023-07-31T10:07:00;7.20;;;2.20;;
2854;SDS011;1435;49.472;10.940;2023-07-31T10:12:05;9.40;;;2.80;;
2854;SDS011;1435;49.472;10.940;2023-07-31T10:17:11;5.33;;;2.30;;
2854;SDS011;1435;49.472;10.940;2023-07-31T10:22:14;3.50;;;2.20;;
2854;SDS011;1435;49.472;10.940;2023-07-31T10:27:18;3.53;;;2.53;;
2854;SDS011;1435;49.472;10.940;2023-07-31T10:32:21;3.63;;;2.57;;
2854;SDS011;1435;49.472;10.940;2023-07-31T10:37:25;4.13;;;2.20;;
2854;SDS011;1435;49.472;10.940;2023-07-31T10:42:32;3.63;;;2.20;;
2854;SDS011;1435;49.472;10.940;2023-07-31T10:47:39;4.20;;;2.40;;
2854;SDS011;1435;49.472;10.940;2023-07-31T10:52:46;4.63;;;2.80;;
2854;SDS011;1435;49.472;10.940;2023-07-31T10:57:49;3.37;;;1.90;;
2854;SDS011;1435;49.472;10.940;2023-07-31T11:03:01;4.00;;;2.20;;
2854;SDS011;1435;49.472;10.940;2023-07-31T11:08:09;4.40;;;2.63;;
2854;SDS011;1435;49.472;10.940;2023-07-31T11:13:12;5.87;;;2.60;;
2854;SDS011;1435;49.472;10.940;2023-07-31T11:18:15;2.73;;;2.40;;
2854;SDS011;1435;49.472;10.940;2023-07-31T11:23:18;4.13;;;2.30;;
2854;SDS011;1435;49.472;10.940;2023-07-31T11:28:21;4.00;;;3.07;;
2854;SDS011;1435;49.472;10.940;2023-07-31T11:33:24;3.37;;;1.80;;
2854;SDS011;1435;49.472;10.940;2023-07-31T11:38:26;5.37;;;2.90;;
2854;SDS011;1435;49.472;10.940;2023-07-31T11:43:29;2.90;;;2.20;;
2854;SDS011;1435;49.472;10.940;2023-07-31T11:48:34;7.60;;;3.30;;
2854;SDS011;1435;49.472;10.940;2023-07-31T11:53:37;4.10;;;2.70;;
2854;SDS011;1435;49.472;10.940;2023-07-31T11:58:41;4.07;;;2.23;;
2854;SDS011;1435;49.472;10.940;2023-07-31T12:03:48;4.00;;;2.50;;
2854;SDS011;1435;49.472;10.940;2023-07-31T12:08:51;5.73;;;2.90;;
2854;SDS011;1435;49.472;10.940;2023-07-31T12:13:52;5.10;;;2.80;;
2854;SDS011;1435;49.472;10.940;2023-07-31T12:18:55;2.57;;;2.20;;
2854;SDS011;1435;49.472;10.940;2023-07-31T12:23:57;3.03;;;2.33;;
2854;SDS011;1435;49.472;10.940;2023-07-31T12:28:59;4.63;;;3.40;;
2854;SDS011;1435;49.472;10.940;2023-07-31T12:34:02;3.20;;;2.70;;
2854;SDS011;1435;49.472;10.940;2023-07-31T12:39:19;4.33;;;2.67;;
2854;SDS011;1435;49.472;10.940;2023-07-31T12:44:20;4.83;;;2.93;;
2854;SDS011;1435;49.472;10.940;2023-07-31T12:49:24;3.53;;;2.90;;
2854;SDS011;1435;49.472;10.940;2023-07-31T12:54:25;6.17;;;2.70;;
2854;SDS011;1435;49.472;10.940;2023-07-31T12:59:27;4.40;;;2.67;;
2854;SDS011;1435;49.472;10.940;2023-07-31T13:04:31;6.20;;;3.27;;
2854;SDS011;1435;49.472;10.940;2023-07-31T13:09:32;7.77;;;2.87;;
2854;SDS011;1435;49.472;10.940;2023-07-31T13:14:34;4.60;;;2.57;;
2854;SDS011;1435;49.472;10.940;2023-07-31T13:19:37;3.70;;;2.73;;
2854;SDS011;1435;49.472;10.940;2023-07-31T13:24:39;3.70;;;2.30;;
2854;SDS011;1435;49.472;10.940;2023-07-31T13:29:40;5.90;;;3.10;;
2854;SDS011;1435;49.472;10.940;2023-07-31T13:34:43;5.23;;;2.80;;
2854;SDS011;1435;49.472;10.940;2023-07-31T13:39:45;4.63;;;2.77;;
2854;SDS011;1435;49.472;10.940;2023-07-31T13:44:47;4.10;;;2.60;;
2854;SDS011;1435;49.472;10.940;2023-07-31T13:49:50;4.13;;;2.63;;
2854;SDS011;1435;49.472;10.940;2023-07-31T13:54:52;5.40;;;3.17;;
2854;SDS011;1435;49.472;10.940;2023-07-31T13:59:53;3.23;;;2.93;;
2854;SDS011;1435;49.472;10.940;2023-07-31T14:04:57;3.80;;;3.03;;
2854;SDS011;1435;49.472;10.940;2023-07-31T14:09:58;3.70;;;2.80;;
2854;SDS011;1435;49.472;10.940;2023-07-31T14:15:00;5.23;;;3.17;;
2854;SDS011;1435;49.472;10.940;2023-07-31T14:20:04;5.53;;;3.10;;
2854;SDS011;1435;49.472;10.940;2023-07-31T14:25:07;4.67;;;3.33;;
2854;SDS011;1435;49.472;10.940;2023-07-31T14:30:10;2.77;;;2.57;;
2854;SDS011;1435;49.472;10.940;2023-07-31T14:35:13;3.73;;;3.00;;
2854;SDS011;1435;49.472;10.940;2023-07-31T14:40:15;9.17;;;3.50;;
2854;SDS011;1435;49.472;10.940;2023-07-31T14:45:17;6.80;;;2.97;;
2854;SDS011;1435;49.472;10.940;2023-07-31T14:50:20;3.63;;;2.93;;
2854;SDS011;1435;49.472;10.940;2023-07-31T14:55:23;4.17;;;3.67;;
2854;SDS011;1435;49.472;10.940;2023-07-31T15:00:25;2.70;;;2.50;;
2854;SDS011;1435;49.472;10.940;2023-07-31T15:05:28;5.00;;;3.10;;
2854;SDS011;1435;49.472;10.940;2023-07-31T15:10:30;5.67;;;3.10;;
2854;SDS011;1435;49.472;10.940;2023-07-31T15:15:32;4.90;;;3.03;;
2854;SDS011;1435;49.472;10.940;2023-07-31T15:20:35;4.00;;;3.60;;
2854;SDS011;1435;49.472;10.940;2023-07-31T15:25:37;5.30;;;3.70;;
2854;SDS011;1435;49.472;10.940;2023-07-31T15:30:39;4.57;;;2.87;;
2854;SDS011;1435;49.472;10.940;2023-07-31T15:35:42;4.10;;;3.10;;
2854;SDS011;1435;49.472;10.940;2023-07-31T15:40:43;3.27;;;2.40;;
2854;SDS011;1435;49.472;10.940;2023-07-31T15:45:45;7.40;;;3.30;;
2854;SDS011;1435;49.472;10.940;2023-07-31T15:50:48;4.73;;;3.07;;
2854;SDS011;1435;49.472;10.940;2023-07-31T15:55:50;5.73;;;3.00;;
2854;SDS011;1435;49.472;10.940;2023-07-31T16:00:51;5.70;;;3.03;;
2854;SDS011;1435;49.472;10.940;2023-07-31T16:05:55;5.00;;;3.30;;
2854;SDS011;1435;49.472;10.940;2023-07-31T16:10:57;4.77;;;3.20;;
2854;SDS011;1435;49.472;10.940;2023-07-31T16:15:59;7.17;;;3.23;;
2854;SDS011;1435;49.472;10.940;2023-07-31T16:21:02;4.93;;;3.20;;
2854;SDS011;1435;49.472;10.940;2023-07-31T16:26:03;4.07;;;2.70;;
2854;SDS011;1435;49.472;10.940;2023-07-31T16:31:05;4.90;;;2.87;;
2854;SDS011;1435;49.472;10.940;2023-07-31T16:36:08;5.83;;;2.97;;
2854;SDS011;1435;49.472;10.940;2023-07-31T16:41:10;3.40;;;3.10;;
2854;SDS011;1435;49.472;10.940;2023-07-31T16:46:12;5.53;;;3.00;;
2854;SDS011;1435;49.472;10.940;2023-07-31T16:51:15;4.90;;;3.27;;
2854;SDS011;1435;49.472;10.940;2023-07-31T16:56:16;3.87;;;2.97;;
2854;SDS011;1435;49.472;10.940;2023-07-31T17:01:18;5.80;;;3.30;;
2854;SDS011;1435;49.472;10.940;2023-07-31T17:06:21;6.23;;;3.13;;
2854;SDS011;1435;49.472;10.940;2023-07-31T17:11:23;3.63;;;3.00;;
2854;SDS011;1435;49.472;10.940;2023-07-31T17:16:25;6.93;;;3.17;;
2854;SDS011;1435;49.472;10.940;2023-07-31T17:21:30;3.90;;;3.40;;
2854;SDS011;1435;49.472;10.940;2023-07-31T17:26:32;3.07;;;2.60;;
2854;SDS011;1435;49.472;10.940;2023-07-31T17:31:33;4.07;;;3.17;;
2854;SDS011;1435;49.472;10.940;2023-07-31T17:36:39;4.50;;;2.80;;
2854;SDS011;1435;49.472;10.940;2023-07-31T17:41:40;6.20;;;3.27;;
2854;SDS011;1435;49.472;10.940;2023-07-31T17:46:42;4.10;;;3.30;;
2854;SDS011;1435;49.472;10.940;2023-07-31T17:51:45;3.20;;;2.30;;
2854;SDS011;1435;49.472;10.940;2023-07-31T17:56:47;5.50;;;3.00;;
2854;SDS011;1435;49.472;10.940;2023-07-31T18:01:49;4.03;;;3.03;;
2854;SDS011;1435;49.472;10.940;2023-07-31T18:06:52;5.50;;;3.60;;
2854;SDS011;1435;49.472;10.940;2023-07-31T18:11:53;8.00;;;3.20;;
2854;SDS011;1435;49.472;10.940;2023-07-31T18:16:56;3.10;;;2.80;;
2854;SDS011;1435;49.472;10.940;2023-07-31T18:21:59;4.73;;;3.27;;
2854;SDS011;1435;49.472;10.940;2023-07-31T18:27:01;3.80;;;2.70;;
2854;SDS011;1435;49.472;10.940;2023-07-31T18:32:03;3.27;;;2.97;;
2854;SDS011;1435;49.472;10.940;2023-07-31T18:37:07;3.57;;;2.83;;
2854;SDS011;1435;49.472;10.940;2023-07-31T18:42:09;5.57;;;3.47;;
2854;SDS011;1435;49.472;10.940;2023-07-31T18:47:10;3.47;;;3.17;;
2854;SDS011;1435;49.472;10.940;2023-07-31T18:52:13;4.50;;;2.53;;
2854;SDS011;1435;49.472;10.940;2023-07-31T18:57:15;3.60;;;2.47;;
2854;SDS011;1435;49.472;10.940;2023-07-31T19:02:17;4.67;;;2.70;;
2854;SDS011;1435;49.472;10.940;2023-07-31T19:07:20;3.43;;;2.77;;
2854;SDS011;1435;49.472;10.940;2023-07-31T19:12:22;3.73;;;3.17;;
2854;SDS011;1435;49.472;10.940;2023-07-31T19:17:23;4.70;;;3.17;;
2854;SDS011;1435;49.472;10.940;2023-07-31T19:22:26;4.03;;;3.00;;
2854;SDS011;1435;49.472;10.940;2023-07-31T19:27:28;4.07;;;3.67;;
2854;SDS011;1435;49.472;10.940;2023-07-31T19:32:30;7.13;;;3.60;;
2854;SDS011;1435;49.472;10.940;2023-07-31T19:37:33;5.27;;;3.23;;
2854;SDS011;1435;49.472;10.940;2023-07-31T19:42:35;3.70;;;3.40;;
2854;SDS011;1435;49.472;10.940;2023-07-31T19:47:36;6.00;;;3.40;;
2854;SDS011;1435;49.472;10.940;2023-07-31T19:52:39;4.40;;;3.10;;
2854;SDS011;1435;49.472;10.940;2023-07-31T19:57:42;6.93;;;3.50;;
2854;SDS011;1435;49.472;10.940;2023-07-31T20:02:43;3.10;;;2.80;;
2854;SDS011;1435;49.472;10.940;2023-07-31T20:07:46;3.70;;;3.40;;
2854;SDS011;1435;49.472;10.940;2023-07-31T20:12:47;4.67;;;3.80;;
2854;SDS011;1435;49.472;10.940;2023-07-31T20:17:49;4.00;;;3.37;;
2854;SDS011;1435;49.472;10.940;2023-07-31T20:22:53;5.13;;;3.10;;
2854;SDS011;1435;49.472;10.940;2023-07-31T20:27:54;5.73;;;3.57;;
2854;SDS011;1435;49.472;10.940;2023-07-31T20:32:56;3.87;;;3.07;;
2854;SDS011;1435;49.472;10.940;2023-07-31T20:37:59;4.13;;;2.97;;
2854;SDS011;1435;49.472;10.940;2023-07-31T20:43:01;3.90;;;3.50;;
2854;SDS011;1435;49.472;10.940;2023-07-31T20:48:03;3.93;;;3.40;;
2854;SDS011;1435;49.472;10.940;2023-07-31T20:53:07;4.93;;;3.47;;
2854;SDS011;1435;49.472;10.940;2023-07-31T20:58:09;5.37;;;3.70;;
2854;SDS011;1435;49.472;10.940;2023-07-31T21:03:11;4.37;;;3.30;;
2854;SDS011;1435;49.472;10.940;2023-07-31T21:08:14;4.00;;;3.70;;
2854;SDS011;1435;49.472;10.940;2023-07-31T21:13:16;5.03;;;3.00;;
2854;SDS011;1435;49.472;10.940;2023-07-31T21:18:18;4.33;;;3.30;;
2854;SDS011;1435;49.472;10.940;2023-07-31T21:23:21;5.83;;;3.33;;
2854;SDS011;1435;49.472;10.940;2023-07-31T21:28:22;4.60;;;3.70;;
2854;SDS011;1435;49.472;10.940;2023-07-31T21:33:24;4.20;;;3.33;;
2854;SDS011;1435;49.472;10.940;2023-07-31T21:38:28;6.40;;;3.70;;
2854;SDS011;1435;49.472;10.940;2023-07-31T21:43:29;6.87;;;3.80;;
2854;SDS011;1435;49.472;10.940;2023-07-31T21:48:31;3.93;;;3.43;;
2854;SDS011;1435;49.472;10.940;2023-07-31T21:53:34;6.57;;;3.50;;
2854;SDS011;1435;49.472;10.940;2023-07-31T21:58:36;4.40;;;4.00;;
2854;SDS011;1435;49.472;10.940;2023-07-31T22:03:37;4.13;;;3.67;;
2854;SDS011;1435;49.472;10.940;2023-07-31T22:08:41;6.60;;;4.43;;
2854;SDS011;1435;49.472;10.940;2023-07-31T22:13:43;4.70;;;3.33;;
2854;SDS011;1435;49.472;10.940;2023-07-31T22:18:44;6.37;;;4.27;;
2854;SDS011;1435;49.472;10.940;2023-07-31T22:23:47;3.77;;;3.40;;
2854;SDS011;1435;49.472;10.940;2023-07-31T22:28:49;6.30;;;4.13;;
2854;SDS011;1435;49.472;10.940;2023-07-31T22:33:51;5.00;;;3.67;;
2854;SDS011;1435;49.472;10.940;2023-07-31T22:38:54;6.53;;;3.63;;
2854;SDS011;1435;49.472;10.940;2023-07-31T22:43:55;5.10;;;3.73;;
2854;SDS011;1435;49.472;10.940;2023-07-31T22:48:58;6.53;;;4.07;;
2854;SDS011;1435;49.472;10.940;2023-07-31T22:54:01;6.27;;;4.13;;
2854;SDS011;1435;49.472;10.940;2023-07-31T22:59:03;5.03;;;4.07;;
2854;SDS011;1435;49.472;10.940;2023-07-31T23:04:05;5.70;;;3.90;;
2854;SDS011;1435;49.472;10.940;2023-07-31T23:09:08;5.23;;;4.00;;
2854;SDS011;1435;49.472;10.940;2023-07-31T23:14:09;5.20;;;4.03;;
2854;SDS011;1435;49.472;10.940;2023-07-31T23:19:11;5.40;;;3.97;;
2854;SDS011;1435;49.472;10.940;2023-07-31T23:24:14;7.13;;;4.77;;
2854;SDS011;1435;49.472;10.940;2023-07-31T23:29:16;5.60;;;4.33;;
2854;SDS011;1435;49.472;10.940;2023-07-31T23:34:17;6.67;;;5.50;;
2854;SDS011;1435;49.472;10.940;2023-07-31T23:39:20;6.50;;;4.40;;
2854;SDS011;1435;49.472;10.940;2023-07-31T23:44:22;5.30;;;4.80;;
2854;SDS011;1435;49.472;10.940;2023-07-31T23:49:24;7.53;;;4.70;;
2854;SDS011;1435;49.472;10.940;2023-07-31T23:54:27;5.93;;;4.70;;
2854;SDS011;1435;49.472;10.940;2023-07-31T23:59:29;5.30;;;4.43;;
